sensor_id;sensor_type;location;lat;lon;timestamp;temperature;humidity
71142;DHT22;58808;59.366;17.970;2023-05-07T00:00:04;3.70;99.90
71142;DHT22;58808;59.366;17.970;2023-05-07T00:02:33;3.70;99.90
71142;DHT22;58808;59.366;17.970;2023-05-07T00:04:59;3.70;99.90
71142;DHT22;58808;59.366;17.970;2023-05-07T00:07:25;3.50;99.90
71142;DHT22;58808;59.366;17.970;2023-05-07T00:09:51;3.40;99.90
71142;DHT22;58808;59.366;17.970;2023-05-07T00:12:16;3.30;99.90
71142;DHT22;58808;59.366;17.970;2023-05-07T00:14:42;3.20;99.90
71142;DHT22;58808;59.366;17.970;2023-05-07T00:17:08;3.30;99.90
71142;DHT22;58808;59.366;17.970;2023-05-07T00:19:34;3.20;99.90
71142;DHT22;58808;59.366;17.970;2023-05-07T00:21:59;3.20;99.90
71142;DHT22;58808;59.366;17.970;2023-05-07T00:24:25;3.30;99.90
71142;DHT22;58808;59.366;17.970;2023-05-07T00:26:51;3.20;99.90
71142;DHT22;58808;59.366;17.970;2023-05-07T00:29:18;3.30;99.90
71142;DHT22;58808;59.366;17.970;2023-05-07T00:31:44;3.50;99.90
71142;DHT22;58808;59.366;17.970;2023-05-07T00:34:09;3.40;99.90
71142;DHT22;58808;59.366;17.970;2023-05-07T00:36:35;3.50;99.90
71142;DHT22;58808;59.366;17.970;2023-05-07T00:39:01;3.40;99.90
71142;DHT22;58808;59.366;17.970;2023-05-07T00:41:29;3.40;99.90
71142;DHT22;58808;59.366;17.970;2023-05-07T00:43:56;3.50;99.90
71142;DHT22;58808;59.366;17.970;2023-05-07T00:46:22;3.30;99.90
71142;DHT22;58808;59.366;17.970;2023-05-07T00:48:50;3.30;99.90
71142;DHT22;58808;59.366;17.970;2023-05-07T00:51:17;3.10;99.90
71142;DHT22;58808;59.366;17.970;2023-05-07T00:53:43;3.10;99.90
71142;DHT22;58808;59.366;17.970;2023-05-07T00:56:10;3.20;99.90
71142;DHT22;58808;59.366;17.970;2023-05-07T00:58:36;3.10;99.90
71142;DHT22;58808;59.366;17.970;2023-05-07T01:01:02;3.10;99.90
71142;DHT22;58808;59.366;17.970;2023-05-07T01:03:28;3.10;99.90
71142;DHT22;58808;59.366;17.970;2023-05-07T01:05:55;3.20;99.90
71142;DHT22;58808;59.366;17.970;2023-05-07T01:08:23;3.20;99.90
71142;DHT22;58808;59.366;17.970;2023-05-07T01:10:51;3.00;99.90
71142;DHT22;58808;59.366;17.970;2023-05-07T01:13:17;2.90;99.90
71142;DHT22;58808;59.366;17.970;2023-05-07T01:15:43;2.80;99.90
71142;DHT22;58808;59.366;17.970;2023-05-07T01:18:09;2.70;99.90
71142;DHT22;58808;59.366;17.970;2023-05-07T01:20:34;2.60;99.90
71142;DHT22;58808;59.366;17.970;2023-05-07T01:23:00;2.60;99.90
71142;DHT22;58808;59.366;17.970;2023-05-07T01:25:27;2.70;99.90
71142;DHT22;58808;59.366;17.970;2023-05-07T01:27:52;2.80;99.90
71142;DHT22;58808;59.366;17.970;2023-05-07T01:30:19;3.00;99.90
71142;DHT22;58808;59.366;17.970;2023-05-07T01:33:01;3.00;99.90
71142;DHT22;58808;59.366;17.970;2023-05-07T01:35:34;2.90;99.90
71142;DHT22;58808;59.366;17.970;2023-05-07T01:38:02;2.80;99.90
71142;DHT22;58808;59.366;17.970;2023-05-07T01:40:30;2.90;99.90
71142;DHT22;58808;59.366;17.970;2023-05-07T01:42:55;2.90;99.90
71142;DHT22;58808;59.366;17.970;2023-05-07T01:45:22;2.80;99.90
71142;DHT22;58808;59.366;17.970;2023-05-07T01:47:48;2.70;99.90
71142;DHT22;58808;59.366;17.970;2023-05-07T01:50:16;2.80;99.90
71142;DHT22;58808;59.366;17.970;2023-05-07T01:52:43;2.70;99.90
71142;DHT22;58808;59.366;17.970;2023-05-07T01:55:09;2.70;99.90
71142;DHT22;58808;59.366;17.970;2023-05-07T01:57:35;2.70;99.90
71142;DHT22;58808;59.366;17.970;2023-05-07T02:00:01;2.70;99.90
71142;DHT22;58808;59.366;17.970;2023-05-07T02:02:31;2.80;99.90
71142;DHT22;58808;59.366;17.970;2023-05-07T02:04:57;2.90;99.90
71142;DHT22;58808;59.366;17.970;2023-05-07T02:07:23;2.90;99.90
71142;DHT22;58808;59.366;17.970;2023-05-07T02:09:48;2.80;99.90
71142;DHT22;58808;59.366;17.970;2023-05-07T02:12:14;2.90;99.90
71142;DHT22;58808;59.366;17.970;2023-05-07T02:14:40;2.90;99.90
71142;DHT22;58808;59.366;17.970;2023-05-07T02:17:07;3.00;99.90
71142;DHT22;58808;59.366;17.970;2023-05-07T02:19:33;3.10;99.90
71142;DHT22;58808;59.366;17.970;2023-05-07T02:21:58;3.10;99.90
71142;DHT22;58808;59.366;17.970;2023-05-07T02:24:24;3.10;99.90
71142;DHT22;58808;59.366;17.970;2023-05-07T02:26:50;3.20;99.90
71142;DHT22;58808;59.366;17.970;2023-05-07T02:29:15;3.10;99.90
71142;DHT22;58808;59.366;17.970;2023-05-07T02:31:41;2.90;99.90
71142;DHT22;58808;59.366;17.970;2023-05-07T02:34:07;2.80;99.90
71142;DHT22;58808;59.366;17.970;2023-05-07T02:36:33;2.90;99.90
71142;DHT22;58808;59.366;17.970;2023-05-07T02:38:58;3.00;99.90
71142;DHT22;58808;59.366;17.970;2023-05-07T02:41:24;3.10;99.90
71142;DHT22;58808;59.366;17.970;2023-05-07T02:43:50;3.10;99.90
71142;DHT22;58808;59.366;17.970;2023-05-07T02:46:15;3.00;99.90
71142;DHT22;58808;59.366;17.970;2023-05-07T02:48:41;3.00;99.90
71142;DHT22;58808;59.366;17.970;2023-05-07T02:51:07;3.00;99.90
71142;DHT22;58808;59.366;17.970;2023-05-07T02:53:33;3.10;99.90
71142;DHT22;58808;59.366;17.970;2023-05-07T02:56:00;2.90;99.90
71142;DHT22;58808;59.366;17.970;2023-05-07T02:58:26;2.70;99.90
71142;DHT22;58808;59.366;17.970;2023-05-07T03:00:52;2.70;99.90
71142;DHT22;58808;59.366;17.970;2023-05-07T03:03:18;2.70;99.90
71142;DHT22;58808;59.366;17.970;2023-05-07T03:05:44;2.70;99.90
71142;DHT22;58808;59.366;17.970;2023-05-07T03:08:10;2.80;99.90
71142;DHT22;58808;59.366;17.970;2023-05-07T03:10:36;2.80;99.90
71142;DHT22;58808;59.366;17.970;2023-05-07T03:13:02;2.90;99.90
71142;DHT22;58808;59.366;17.970;2023-05-07T03:15:29;2.90;99.90
71142;DHT22;58808;59.366;17.970;2023-05-07T03:17:55;2.90;99.90
71142;DHT22;58808;59.366;17.970;2023-05-07T03:20:21;2.90;99.90
71142;DHT22;58808;59.366;17.970;2023-05-07T03:22:47;2.80;99.90
71142;DHT22;58808;59.366;17.970;2023-05-07T03:25:12;2.70;99.90
71142;DHT22;58808;59.366;17.970;2023-05-07T03:27:39;2.70;99.90
71142;DHT22;58808;59.366;17.970;2023-05-07T03:30:06;2.80;99.90
71142;DHT22;58808;59.366;17.970;2023-05-07T03:32:33;2.80;99.90
71142;DHT22;58808;59.366;17.970;2023-05-07T03:34:59;2.80;99.90
71142;DHT22;58808;59.366;17.970;2023-05-07T03:37:24;2.80;99.90
71142;DHT22;58808;59.366;17.970;2023-05-07T03:39:50;2.80;99.90
71142;DHT22;58808;59.366;17.970;2023-05-07T03:42:16;2.80;99.90
71142;DHT22;58808;59.366;17.970;2023-05-07T03:44:42;2.90;99.90
71142;DHT22;58808;59.366;17.970;2023-05-07T03:47:07;3.00;99.90
71142;DHT22;58808;59.366;17.970;2023-05-07T03:49:33;3.10;99.90
71142;DHT22;58808;59.366;17.970;2023-05-07T03:51:59;3.20;99.90
71142;DHT22;58808;59.366;17.970;2023-05-07T03:54:25;3.30;99.90
71142;DHT22;58808;59.366;17.970;2023-05-07T03:56:50;3.10;99.90
71142;DHT22;58808;59.366;17.970;2023-05-07T03:59:16;3.20;99.90
71142;DHT22;58808;59.366;17.970;2023-05-07T04:01:42;3.30;99.90
71142;DHT22;58808;59.366;17.970;2023-05-07T04:04:07;3.30;99.90
71142;DHT22;58808;59.366;17.970;2023-05-07T04:06:33;3.10;99.90
71142;DHT22;58808;59.366;17.970;2023-05-07T04:08:59;3.00;99.90
71142;DHT22;58808;59.366;17.970;2023-05-07T04:11:25;3.10;99.90
71142;DHT22;58808;59.366;17.970;2023-05-07T04:13:50;3.10;99.90
71142;DHT22;58808;59.366;17.970;2023-05-07T04:16:16;3.10;99.90
71142;DHT22;58808;59.366;17.970;2023-05-07T04:18:42;3.10;99.90
71142;DHT22;58808;59.366;17.970;2023-05-07T04:21:21;3.20;99.90
71142;DHT22;58808;59.366;17.970;2023-05-07T04:23:47;3.20;99.90
71142;DHT22;58808;59.366;17.970;2023-05-07T04:26:14;3.20;99.90
71142;DHT22;58808;59.366;17.970;2023-05-07T04:28:40;3.30;99.90
71142;DHT22;58808;59.366;17.970;2023-05-07T04:31:06;3.40;99.90
71142;DHT22;58808;59.366;17.970;2023-05-07T04:33:32;3.50;99.90
71142;DHT22;58808;59.366;17.970;2023-05-07T04:36:01;3.50;99.90
71142;DHT22;58808;59.366;17.970;2023-05-07T04:38:29;3.60;99.90
71142;DHT22;58808;59.366;17.970;2023-05-07T04:40:55;3.70;99.90
71142;DHT22;58808;59.366;17.970;2023-05-07T04:43:22;3.80;99.90
71142;DHT22;58808;59.366;17.970;2023-05-07T04:45:49;3.90;99.90
71142;DHT22;58808;59.366;17.970;2023-05-07T04:48:14;4.00;99.90
71142;DHT22;58808;59.366;17.970;2023-05-07T04:50:40;4.00;99.90
71142;DHT22;58808;59.366;17.970;2023-05-07T04:53:06;4.10;99.90
71142;DHT22;58808;59.366;17.970;2023-05-07T04:55:32;4.10;99.90
71142;DHT22;58808;59.366;17.970;2023-05-07T04:57:58;4.00;99.90
71142;DHT22;58808;59.366;17.970;2023-05-07T05:00:23;4.00;99.90
71142;DHT22;58808;59.366;17.970;2023-05-07T05:02:50;4.10;99.90
71142;DHT22;58808;59.366;17.970;2023-05-07T05:05:16;4.20;99.90
71142;DHT22;58808;59.366;17.970;2023-05-07T05:07:41;4.20;99.90
71142;DHT22;58808;59.366;17.970;2023-05-07T05:10:07;4.30;99.90
71142;DHT22;58808;59.366;17.970;2023-05-07T05:12:33;4.30;99.90
71142;DHT22;58808;59.366;17.970;2023-05-07T05:14:59;4.30;99.90
71142;DHT22;58808;59.366;17.970;2023-05-07T05:17:25;4.20;99.90
71142;DHT22;58808;59.366;17.970;2023-05-07T05:19:50;4.30;99.90
71142;DHT22;58808;59.366;17.970;2023-05-07T05:22:16;4.30;99.90
71142;DHT22;58808;59.366;17.970;2023-05-07T05:24:42;4.40;99.90
71142;DHT22;58808;59.366;17.970;2023-05-07T05:27:07;4.50;99.90
71142;DHT22;58808;59.366;17.970;2023-05-07T05:29:33;4.60;99.90
71142;DHT22;58808;59.366;17.970;2023-05-07T05:31:59;4.60;99.90
71142;DHT22;58808;59.366;17.970;2023-05-07T05:34:25;4.50;99.90
71142;DHT22;58808;59.366;17.970;2023-05-07T05:36:50;4.60;99.90
71142;DHT22;58808;59.366;17.970;2023-05-07T05:39:16;4.60;99.90
71142;DHT22;58808;59.366;17.970;2023-05-07T05:41:42;4.60;99.90
71142;DHT22;58808;59.366;17.970;2023-05-07T05:44:08;4.70;99.90
71142;DHT22;58808;59.366;17.970;2023-05-07T05:46:33;4.70;99.90
71142;DHT22;58808;59.366;17.970;2023-05-07T05:49:00;4.70;99.90
71142;DHT22;58808;59.366;17.970;2023-05-07T05:51:26;4.80;99.90
71142;DHT22;58808;59.366;17.970;2023-05-07T05:53:52;4.90;99.90
71142;DHT22;58808;59.366;17.970;2023-05-07T05:56:17;4.80;99.90
71142;DHT22;58808;59.366;17.970;2023-05-07T05:58:43;4.90;99.90
71142;DHT22;58808;59.366;17.970;2023-05-07T06:01:09;5.00;99.90
71142;DHT22;58808;59.366;17.970;2023-05-07T06:03:35;5.10;99.90
71142;DHT22;58808;59.366;17.970;2023-05-07T06:06:01;5.20;99.90
71142;DHT22;58808;59.366;17.970;2023-05-07T06:08:29;5.10;99.90
71142;DHT22;58808;59.366;17.970;2023-05-07T06:10:56;5.10;99.90
71142;DHT22;58808;59.366;17.970;2023-05-07T06:13:22;5.10;99.90
71142;DHT22;58808;59.366;17.970;2023-05-07T06:15:49;5.10;99.90
71142;DHT22;58808;59.366;17.970;2023-05-07T06:18:14;5.20;99.90
71142;DHT22;58808;59.366;17.970;2023-05-07T06:20:40;5.30;99.90
71142;DHT22;58808;59.366;17.970;2023-05-07T06:23:06;5.30;99.90
71142;DHT22;58808;59.366;17.970;2023-05-07T06:25:31;5.40;99.90
71142;DHT22;58808;59.366;17.970;2023-05-07T06:27:57;5.30;99.90
71142;DHT22;58808;59.366;17.970;2023-05-07T06:30:23;5.30;99.90
71142;DHT22;58808;59.366;17.970;2023-05-07T06:32:49;5.40;99.90
71142;DHT22;58808;59.366;17.970;2023-05-07T06:35:14;5.50;99.90
71142;DHT22;58808;59.366;17.970;2023-05-07T06:37:41;5.50;99.90
71142;DHT22;58808;59.366;17.970;2023-05-07T06:40:10;5.50;99.90
71142;DHT22;58808;59.366;17.970;2023-05-07T06:42:36;5.60;99.90
71142;DHT22;58808;59.366;17.970;2023-05-07T06:45:03;5.60;99.90
71142;DHT22;58808;59.366;17.970;2023-05-07T06:47:29;5.60;99.90
71142;DHT22;58808;59.366;17.970;2023-05-07T06:49:55;5.70;99.90
71142;DHT22;58808;59.366;17.970;2023-05-07T06:52:21;6.00;99.90
71142;DHT22;58808;59.366;17.970;2023-05-07T06:54:47;6.20;99.90
71142;DHT22;58808;59.366;17.970;2023-05-07T06:57:12;6.40;99.90
71142;DHT22;58808;59.366;17.970;2023-05-07T06:59:38;6.50;99.90
71142;DHT22;58808;59.366;17.970;2023-05-07T07:02:04;6.70;99.90
71142;DHT22;58808;59.366;17.970;2023-05-07T07:04:29;6.90;99.90
71142;DHT22;58808;59.366;17.970;2023-05-07T07:06:55;7.20;96.40
71142;DHT22;58808;59.366;17.970;2023-05-07T07:09:22;7.50;92.60
71142;DHT22;58808;59.366;17.970;2023-05-07T07:11:48;7.50;91.70
71142;DHT22;58808;59.366;17.970;2023-05-07T07:14:13;7.60;90.20
71142;DHT22;58808;59.366;17.970;2023-05-07T07:16:40;7.70;89.80
71142;DHT22;58808;59.366;17.970;2023-05-07T07:19:06;7.80;87.80
71142;DHT22;58808;59.366;17.970;2023-05-07T07:21:32;8.00;86.20
71142;DHT22;58808;59.366;17.970;2023-05-07T07:23:57;8.10;86.20
71142;DHT22;58808;59.366;17.970;2023-05-07T07:26:23;8.20;83.00
71142;DHT22;58808;59.366;17.970;2023-05-07T07:28:49;8.30;83.40
71142;DHT22;58808;59.366;17.970;2023-05-07T07:31:14;8.40;83.90
71142;DHT22;58808;59.366;17.970;2023-05-07T07:33:40;8.60;81.30
71142;DHT22;58808;59.366;17.970;2023-05-07T07:36:06;8.90;74.60
71142;DHT22;58808;59.366;17.970;2023-05-07T07:38:33;8.90;73.20
71142;DHT22;58808;59.366;17.970;2023-05-07T07:41:00;8.80;71.60
71142;DHT22;58808;59.366;17.970;2023-05-07T07:43:26;9.00;72.10
71142;DHT22;58808;59.366;17.970;2023-05-07T07:45:53;9.20;71.30
71142;DHT22;58808;59.366;17.970;2023-05-07T07:48:18;9.30;68.90
71142;DHT22;58808;59.366;17.970;2023-05-07T07:50:44;9.40;66.20
71142;DHT22;58808;59.366;17.970;2023-05-07T07:53:10;9.40;64.50
71142;DHT22;58808;59.366;17.970;2023-05-07T07:55:39;9.40;60.80
71142;DHT22;58808;59.366;17.970;2023-05-07T07:58:05;9.30;62.70
71142;DHT22;58808;59.366;17.970;2023-05-07T08:00:31;9.40;63.40
71142;DHT22;58808;59.366;17.970;2023-05-07T08:02:57;9.60;60.80
71142;DHT22;58808;59.366;17.970;2023-05-07T08:05:23;9.60;59.40
71142;DHT22;58808;59.366;17.970;2023-05-07T08:07:48;9.70;57.50
71142;DHT22;58808;59.366;17.970;2023-05-07T08:10:17;9.70;57.10
71142;DHT22;58808;59.366;17.970;2023-05-07T08:12:48;9.50;57.60
71142;DHT22;58808;59.366;17.970;2023-05-07T08:15:14;9.40;57.70
71142;DHT22;58808;59.366;17.970;2023-05-07T08:17:40;9.50;57.70
71142;DHT22;58808;59.366;17.970;2023-05-07T08:20:06;9.60;56.20
71142;DHT22;58808;59.366;17.970;2023-05-07T08:22:34;9.60;56.20
71142;DHT22;58808;59.366;17.970;2023-05-07T08:24:59;9.70;56.70
71142;DHT22;58808;59.366;17.970;2023-05-07T08:27:25;10.00;56.50
71142;DHT22;58808;59.366;17.970;2023-05-07T08:29:51;10.30;56.30
71142;DHT22;58808;59.366;17.970;2023-05-07T08:32:17;10.50;55.20
71142;DHT22;58808;59.366;17.970;2023-05-07T08:34:42;10.40;54.10
71142;DHT22;58808;59.366;17.970;2023-05-07T08:37:08;10.60;53.00
71142;DHT22;58808;59.366;17.970;2023-05-07T08:39:34;10.70;51.50
71142;DHT22;58808;59.366;17.970;2023-05-07T08:42:00;10.70;50.70
71142;DHT22;58808;59.366;17.970;2023-05-07T08:44:35;10.70;51.30
71142;DHT22;58808;59.366;17.970;2023-05-07T08:47:01;11.00;51.80
71142;DHT22;58808;59.366;17.970;2023-05-07T08:49:28;11.20;51.30
71142;DHT22;58808;59.366;17.970;2023-05-07T08:51:54;11.30;48.30
71142;DHT22;58808;59.366;17.970;2023-05-07T08:54:21;11.30;50.50
71142;DHT22;58808;59.366;17.970;2023-05-07T08:56:46;11.30;50.20
71142;DHT22;58808;59.366;17.970;2023-05-07T08:59:12;11.30;50.10
71142;DHT22;58808;59.366;17.970;2023-05-07T09:01:38;11.30;48.90
71142;DHT22;58808;59.366;17.970;2023-05-07T09:04:04;11.30;48.70
71142;DHT22;58808;59.366;17.970;2023-05-07T09:06:31;11.50;48.00
71142;DHT22;58808;59.366;17.970;2023-05-07T09:08:57;11.70;47.20
71142;DHT22;58808;59.366;17.970;2023-05-07T09:11:24;11.40;46.60
71142;DHT22;58808;59.366;17.970;2023-05-07T09:13:54;11.50;46.90
71142;DHT22;58808;59.366;17.970;2023-05-07T09:16:28;11.60;47.90
71142;DHT22;58808;59.366;17.970;2023-05-07T09:18:54;11.90;50.20
71142;DHT22;58808;59.366;17.970;2023-05-07T09:21:21;12.20;48.50
71142;DHT22;58808;59.366;17.970;2023-05-07T09:23:51;12.40;48.40
71142;DHT22;58808;59.366;17.970;2023-05-07T09:26:18;12.70;45.20
71142;DHT22;58808;59.366;17.970;2023-05-07T09:28:44;12.70;43.50
71142;DHT22;58808;59.366;17.970;2023-05-07T09:31:10;12.80;42.40
71142;DHT22;58808;59.366;17.970;2023-05-07T09:33:37;12.90;42.50
71142;DHT22;58808;59.366;17.970;2023-05-07T09:36:07;13.00;41.40
71142;DHT22;58808;59.366;17.970;2023-05-07T09:38:35;12.60;42.50
71142;DHT22;58808;59.366;17.970;2023-05-07T09:41:11;12.60;42.30
71142;DHT22;58808;59.366;17.970;2023-05-07T09:43:39;12.50;43.30
71142;DHT22;58808;59.366;17.970;2023-05-07T09:46:13;12.50;42.70
71142;DHT22;58808;59.366;17.970;2023-05-07T09:48:42;12.50;43.80
71142;DHT22;58808;59.366;17.970;2023-05-07T09:51:34;12.70;43.70
71142;DHT22;58808;59.366;17.970;2023-05-07T09:54:04;12.60;43.20
71142;DHT22;58808;59.366;17.970;2023-05-07T09:56:30;12.70;43.80
71142;DHT22;58808;59.366;17.970;2023-05-07T09:59:00;13.00;43.90
71142;DHT22;58808;59.366;17.970;2023-05-07T10:01:27;13.30;44.20
71142;DHT22;58808;59.366;17.970;2023-05-07T10:03:53;13.40;41.50
71142;DHT22;58808;59.366;17.970;2023-05-07T10:06:23;13.60;42.30
71142;DHT22;58808;59.366;17.970;2023-05-07T10:08:50;13.50;40.40
71142;DHT22;58808;59.366;17.970;2023-05-07T10:11:17;13.50;42.00
71142;DHT22;58808;59.366;17.970;2023-05-07T10:13:43;13.80;42.80
71142;DHT22;58808;59.366;17.970;2023-05-07T10:16:09;13.90;41.60
71142;DHT22;58808;59.366;17.970;2023-05-07T10:18:37;13.70;39.00
71142;DHT22;58808;59.366;17.970;2023-05-07T10:21:17;13.50;39.60
71142;DHT22;58808;59.366;17.970;2023-05-07T10:23:45;13.40;39.80
71142;DHT22;58808;59.366;17.970;2023-05-07T10:26:15;13.40;39.90
71142;DHT22;58808;59.366;17.970;2023-05-07T10:28:45;13.20;39.40
71142;DHT22;58808;59.366;17.970;2023-05-07T10:33:56;13.20;39.90
71142;DHT22;58808;59.366;17.970;2023-05-07T10:36:23;13.50;40.00
71142;DHT22;58808;59.366;17.970;2023-05-07T10:38:50;13.70;39.00
71142;DHT22;58808;59.366;17.970;2023-05-07T10:41:16;13.60;39.10
71142;DHT22;58808;59.366;17.970;2023-05-07T10:43:45;13.80;39.10
71142;DHT22;58808;59.366;17.970;2023-05-07T10:46:18;13.90;38.90
71142;DHT22;58808;59.366;17.970;2023-05-07T10:51:32;14.00;38.60
71142;DHT22;58808;59.366;17.970;2023-05-07T10:56:37;13.90;38.60
71142;DHT22;58808;59.366;17.970;2023-05-07T11:04:23;13.50;38.60
71142;DHT22;58808;59.366;17.970;2023-05-07T11:15:13;13.00;39.80
71142;DHT22;58808;59.366;17.970;2023-05-07T11:17:56;12.90;39.60
71142;DHT22;58808;59.366;17.970;2023-05-07T11:26:09;13.20;38.70
71142;DHT22;58808;59.366;17.970;2023-05-07T11:28:40;13.10;39.00
71142;DHT22;58808;59.366;17.970;2023-05-07T11:31:06;13.00;38.40
71142;DHT22;58808;59.366;17.970;2023-05-07T11:33:33;13.10;39.30
71142;DHT22;58808;59.366;17.970;2023-05-07T11:36:00;13.30;39.00
71142;DHT22;58808;59.366;17.970;2023-05-07T11:38:26;13.40;38.30
71142;DHT22;58808;59.366;17.970;2023-05-07T11:40:57;13.40;38.70
71142;DHT22;58808;59.366;17.970;2023-05-07T11:43:24;13.70;38.00
71142;DHT22;58808;59.366;17.970;2023-05-07T11:45:50;13.60;36.90
71142;DHT22;58808;59.366;17.970;2023-05-07T11:48:16;13.70;36.40
71142;DHT22;58808;59.366;17.970;2023-05-07T11:51:05;13.60;35.90
71142;DHT22;58808;59.366;17.970;2023-05-07T11:53:43;13.60;35.50
71142;DHT22;58808;59.366;17.970;2023-05-07T11:56:14;13.50;35.00
71142;DHT22;58808;59.366;17.970;2023-05-07T11:58:42;13.30;34.80
71142;DHT22;58808;59.366;17.970;2023-05-07T12:01:09;13.20;35.50
71142;DHT22;58808;59.366;17.970;2023-05-07T12:03:36;12.90;35.00
71142;DHT22;58808;59.366;17.970;2023-05-07T12:06:09;12.80;36.40
71142;DHT22;58808;59.366;17.970;2023-05-07T12:08:37;12.80;35.80
71142;DHT22;58808;59.366;17.970;2023-05-07T12:11:03;12.90;33.40
71142;DHT22;58808;59.366;17.970;2023-05-07T12:13:32;12.80;33.60
71142;DHT22;58808;59.366;17.970;2023-05-07T12:15:58;12.90;34.00
71142;DHT22;58808;59.366;17.970;2023-05-07T12:18:24;12.90;34.00
71142;DHT22;58808;59.366;17.970;2023-05-07T12:20:50;13.10;33.70
71142;DHT22;58808;59.366;17.970;2023-05-07T12:23:16;13.00;33.40
71142;DHT22;58808;59.366;17.970;2023-05-07T12:25:43;12.90;32.90
71142;DHT22;58808;59.366;17.970;2023-05-07T12:28:19;13.10;32.10
71142;DHT22;58808;59.366;17.970;2023-05-07T12:30:46;13.50;32.50
71142;DHT22;58808;59.366;17.970;2023-05-07T12:33:23;13.40;29.20
71142;DHT22;58808;59.366;17.970;2023-05-07T12:35:49;13.20;29.70
71142;DHT22;58808;59.366;17.970;2023-05-07T12:38:17;13.10;30.60
71142;DHT22;58808;59.366;17.970;2023-05-07T12:40:47;13.30;30.20
71142;DHT22;58808;59.366;17.970;2023-05-07T12:43:26;13.30;29.30
71142;DHT22;58808;59.366;17.970;2023-05-07T12:45:56;13.10;29.60
71142;DHT22;58808;59.366;17.970;2023-05-07T12:48:23;13.10;29.30
71142;DHT22;58808;59.366;17.970;2023-05-07T12:50:50;13.00;28.90
71142;DHT22;58808;59.366;17.970;2023-05-07T12:53:17;13.00;28.80
71142;DHT22;58808;59.366;17.970;2023-05-07T12:55:46;13.30;30.70
71142;DHT22;58808;59.366;17.970;2023-05-07T12:58:29;13.60;28.20
71142;DHT22;58808;59.366;17.970;2023-05-07T13:00:58;13.40;28.60
71142;DHT22;58808;59.366;17.970;2023-05-07T13:03:35;13.10;29.40
71142;DHT22;58808;59.366;17.970;2023-05-07T13:06:09;13.30;30.00
71142;DHT22;58808;59.366;17.970;2023-05-07T13:08:41;13.30;29.70
71142;DHT22;58808;59.366;17.970;2023-05-07T13:11:10;13.40;30.10
71142;DHT22;58808;59.366;17.970;2023-05-07T13:13:38;13.60;29.50
71142;DHT22;58808;59.366;17.970;2023-05-07T13:16:07;13.40;29.70
71142;DHT22;58808;59.366;17.970;2023-05-07T13:18:34;13.60;30.00
71142;DHT22;58808;59.366;17.970;2023-05-07T13:21:00;13.90;29.80
71142;DHT22;58808;59.366;17.970;2023-05-07T13:23:27;14.00;29.20
71142;DHT22;58808;59.366;17.970;2023-05-07T13:25:53;14.00;28.50
71142;DHT22;58808;59.366;17.970;2023-05-07T13:28:23;14.00;30.00
71142;DHT22;58808;59.366;17.970;2023-05-07T13:30:49;13.60;28.70
71142;DHT22;58808;59.366;17.970;2023-05-07T13:33:17;13.60;29.90
71142;DHT22;58808;59.366;17.970;2023-05-07T13:35:44;13.90;30.10
71142;DHT22;58808;59.366;17.970;2023-05-07T13:38:10;13.80;30.20
71142;DHT22;58808;59.366;17.970;2023-05-07T13:40:36;13.60;29.70
71142;DHT22;58808;59.366;17.970;2023-05-07T13:43:01;13.60;31.80
71142;DHT22;58808;59.366;17.970;2023-05-07T13:45:28;13.80;32.10
71142;DHT22;58808;59.366;17.970;2023-05-07T13:47:55;13.60;32.00
71142;DHT22;58808;59.366;17.970;2023-05-07T13:50:21;13.60;33.60
71142;DHT22;58808;59.366;17.970;2023-05-07T13:52:47;13.70;32.50
71142;DHT22;58808;59.366;17.970;2023-05-07T13:55:20;13.70;33.10
71142;DHT22;58808;59.366;17.970;2023-05-07T13:57:46;14.10;33.40
71142;DHT22;58808;59.366;17.970;2023-05-07T14:00:13;14.50;32.60
71142;DHT22;58808;59.366;17.970;2023-05-07T14:02:39;14.90;33.10
71142;DHT22;58808;59.366;17.970;2023-05-07T14:05:06;15.00;31.30
71142;DHT22;58808;59.366;17.970;2023-05-07T14:07:32;15.00;31.30
71142;DHT22;58808;59.366;17.970;2023-05-07T14:09:57;14.90;31.10
71142;DHT22;58808;59.366;17.970;2023-05-07T14:12:23;14.80;31.60
71142;DHT22;58808;59.366;17.970;2023-05-07T14:14:49;15.00;31.10
71142;DHT22;58808;59.366;17.970;2023-05-07T14:17:18;14.80;31.40
71142;DHT22;58808;59.366;17.970;2023-05-07T14:19:45;14.60;32.20
71142;DHT22;58808;59.366;17.970;2023-05-07T14:22:12;14.20;32.70
71142;DHT22;58808;59.366;17.970;2023-05-07T14:24:38;14.30;32.50
71142;DHT22;58808;59.366;17.970;2023-05-07T14:27:05;14.40;32.20
71142;DHT22;58808;59.366;17.970;2023-05-07T14:29:31;14.70;31.40
71142;DHT22;58808;59.366;17.970;2023-05-07T14:31:56;14.80;30.50
71142;DHT22;58808;59.366;17.970;2023-05-07T14:34:22;14.40;31.20
71142;DHT22;58808;59.366;17.970;2023-05-07T14:36:48;14.50;32.10
71142;DHT22;58808;59.366;17.970;2023-05-07T14:39:13;14.70;31.70
71142;DHT22;58808;59.366;17.970;2023-05-07T14:41:39;14.60;31.40
71142;DHT22;58808;59.366;17.970;2023-05-07T14:44:05;14.80;32.50
71142;DHT22;58808;59.366;17.970;2023-05-07T14:46:31;14.60;31.90
71142;DHT22;58808;59.366;17.970;2023-05-07T14:48:57;14.60;32.40
71142;DHT22;58808;59.366;17.970;2023-05-07T14:51:23;14.70;31.90
71142;DHT22;58808;59.366;17.970;2023-05-07T14:53:50;14.80;31.50
71142;DHT22;58808;59.366;17.970;2023-05-07T14:56:16;14.80;32.20
71142;DHT22;58808;59.366;17.970;2023-05-07T14:58:42;15.00;31.60
71142;DHT22;58808;59.366;17.970;2023-05-07T15:01:08;14.50;33.40
71142;DHT22;58808;59.366;17.970;2023-05-07T15:03:34;14.10;35.60
71142;DHT22;58808;59.366;17.970;2023-05-07T15:06:00;13.80;37.00
71142;DHT22;58808;59.366;17.970;2023-05-07T15:08:26;13.30;38.40
71142;DHT22;58808;59.366;17.970;2023-05-07T15:10:51;13.30;38.50
71142;DHT22;58808;59.366;17.970;2023-05-07T15:13:17;13.00;38.60
71142;DHT22;58808;59.366;17.970;2023-05-07T15:15:45;13.10;38.60
71142;DHT22;58808;59.366;17.970;2023-05-07T15:18:11;13.00;38.10
71142;DHT22;58808;59.366;17.970;2023-05-07T15:20:37;12.90;38.10
71142;DHT22;58808;59.366;17.970;2023-05-07T15:23:03;12.80;38.40
71142;DHT22;58808;59.366;17.970;2023-05-07T15:25:31;12.90;38.50
71142;DHT22;58808;59.366;17.970;2023-05-07T15:27:58;12.80;37.60
71142;DHT22;58808;59.366;17.970;2023-05-07T15:30:24;12.60;38.00
71142;DHT22;58808;59.366;17.970;2023-05-07T15:32:50;12.50;38.60
71142;DHT22;58808;59.366;17.970;2023-05-07T15:35:16;12.40;38.80
71142;DHT22;58808;59.366;17.970;2023-05-07T15:37:42;12.20;38.70
71142;DHT22;58808;59.366;17.970;2023-05-07T15:40:09;12.10;39.60
71142;DHT22;58808;59.366;17.970;2023-05-07T15:42:36;12.00;39.80
71142;DHT22;58808;59.366;17.970;2023-05-07T15:45:01;11.90;40.20
71142;DHT22;58808;59.366;17.970;2023-05-07T15:47:27;11.90;40.20
71142;DHT22;58808;59.366;17.970;2023-05-07T15:49:53;12.00;40.50